Terminal Aerodrome Forecast
Issued by NWS Louisville, KY

Home | Current Version | Previous Version | Text Only | Print | Product List | Glossary On
Versions: 1 2 3 4 5 6 7 8 9 10 11 12 13 14 15 16 17
000
FTUS43 KLMK 220500
TAFSDF
TAF
KSDF 220524Z 2206/2312 22005KT P6SM VCSH OVC060
     FM220900 26007KT P6SM VCSH BKN022
     FM221300 31012KT P6SM BKN017
     FM221700 34012G18KT P6SM SCT030
     FM230100 34006KT P6SM SKC=

USA.gov is the U.S. government's official web portal to all federal, state and local government web resources and services.